createdAt,value
2019-05-01T04:25:30.567Z,99.90
2019-05-01T04:28:04.286Z,99.90
2019-05-01T04:30:57.013Z,99.90
2019-05-01T04:33:29.460Z,99.90
2019-05-01T04:36:05.044Z,99.90
2019-05-01T04:38:35.504Z,99.90
2019-05-01T04:41:05.784Z,99.90
2019-05-01T04:43:36.515Z,99.90
2019-05-01T04:46:06.813Z,99.90
2019-05-01T04:48:37.444Z,99.90
2019-05-01T04:51:09.579Z,99.90
2019-05-01T04:53:40.002Z,99.90
2019-05-01T04:56:10.488Z,99.90
2019-05-01T04:58:40.811Z,99.90
2019-05-01T05:01:11.115Z,99.90
2019-05-01T05:03:41.525Z,99.90
2019-05-01T05:06:11.815Z,99.90
2019-05-01T05:08:42.135Z,99.90
2019-05-01T05:11:17.552Z,99.90
2019-05-01T05:14:10.199Z,99.90
2019-05-01T05:17:05.798Z,99.90
2019-05-01T05:19:36.175Z,99.90
2019-05-01T05:22:06.581Z,99.90
2019-05-01T05:24:37.617Z,99.90
2019-05-01T05:27:08.910Z,99.90
2019-05-01T05:29:40.413Z,99.90
2019-05-01T05:32:12.425Z,99.90
2019-05-01T05:34:45.261Z,99.90
2019-05-01T05:37:25.769Z,99.90
2019-05-01T05:40:00.124Z,99.90
2019-05-01T05:42:31.418Z,99.90
2019-05-01T05:45:02.072Z,99.90
2019-05-01T05:47:32.666Z,99.90
2019-05-01T05:50:03.296Z,99.90
2019-05-01T05:52:49.427Z,99.90
2019-05-01T05:55:41.624Z,99.90
2019-05-01T05:58:31.901Z,99.90
2019-05-01T06:01:29.112Z,99.90
2019-05-01T06:04:19.759Z,99.90
2019-05-01T06:07:04.577Z,99.90
2019-05-01T06:09:50.636Z,99.90
2019-05-01T06:12:50.579Z,99.90
2019-05-01T06:15:49.122Z,99.90
2019-05-01T06:18:24.303Z,99.90
2019-05-01T06:21:03.961Z,99.90
2019-05-01T06:23:43.410Z,99.90
2019-05-01T06:26:47.939Z,99.90
2019-05-01T06:29:18.320Z,99.90
2019-05-01T06:31:48.824Z,99.90
2019-05-01T06:34:19.388Z,99.90
2019-05-01T06:36:51.382Z,99.90
2019-05-01T06:39:22.772Z,99.90
2019-05-01T06:41:54.025Z,99.90
2019-05-01T06:44:44.320Z,99.90
2019-05-01T06:47:43.121Z,99.90
2019-05-01T06:50:43.786Z,99.90
2019-05-01T06:53:14.195Z,99.90
2019-05-01T06:55:45.599Z,99.90
2019-05-01T06:58:20.417Z,99.90
2019-05-01T07:00:52.454Z,99.90
2019-05-01T07:03:23.453Z,99.90
2019-05-01T07:05:56.237Z,99.90
2019-05-01T07:08:29.543Z,99.90
2019-05-01T07:10:58.854Z,99.90
2019-05-01T07:13:29.126Z,99.90
2019-05-01T07:16:03.222Z,99.90
2019-05-01T07:18:31.676Z,99.90
2019-05-01T07:21:02.031Z,99.90
2019-05-01T07:23:32.502Z,99.90
2019-05-01T07:26:02.932Z,99.90
2019-05-01T07:28:36.224Z,99.90
2019-05-01T07:31:13.360Z,99.90
2019-05-01T07:33:46.988Z,99.90
2019-05-01T07:36:18.386Z,99.90
2019-05-01T07:38:48.887Z,99.90
2019-05-01T07:41:19.443Z,99.90
2019-05-01T07:43:59.754Z,99.90
2019-05-01T07:46:48.821Z,99.90
2019-05-01T07:49:19.318Z,99.90
2019-05-01T07:51:53.927Z,99.90
2019-05-01T07:54:24.420Z,99.90
2019-05-01T07:56:58.769Z,99.90
2019-05-01T07:59:28.638Z,99.90
2019-05-01T08:02:17.360Z,99.90
2019-05-01T08:04:47.641Z,99.90
2019-05-01T08:07:17.955Z,99.90
2019-05-01T08:09:50.279Z,99.90
2019-05-01T08:12:23.987Z,99.90
2019-05-01T08:14:53.572Z,99.90
2019-05-01T08:17:25.544Z,99.90
2019-05-01T08:20:00.735Z,99.90
2019-05-01T08:22:37.289Z,99.90
2019-05-01T08:25:06.445Z,99.90
2019-05-01T08:27:55.839Z,99.90
2019-05-01T08:30:40.336Z,99.90
2019-05-01T08:33:34.416Z,99.90
2019-05-01T08:36:11.831Z,99.90
2019-05-01T08:38:39.441Z,99.90
2019-05-01T08:41:09.733Z,99.90
2019-05-01T08:43:40.583Z,99.90
2019-05-01T08:46:28.697Z,99.90
2019-05-01T08:49:12.674Z,99.90
2019-05-01T08:51:42.989Z,99.90
2019-05-01T08:54:13.316Z,99.90
2019-05-01T08:56:43.907Z,99.90
2019-05-01T08:59:14.572Z,99.90
2019-05-01T09:01:45.809Z,99.90
2019-05-01T09:04:18.772Z,99.90
2019-05-01T09:06:49.360Z,99.90
2019-05-01T09:09:20.024Z,99.90
2019-05-01T09:11:50.445Z,99.90
2019-05-01T09:14:21.153Z,99.90
2019-05-01T09:16:52.617Z,99.90
2019-05-01T09:19:23.235Z,99.90
2019-05-01T09:21:53.520Z,99.90
2019-05-01T09:24:27.959Z,99.90
2019-05-01T09:27:31.092Z,99.90
2019-05-01T09:30:05.217Z,99.90
2019-05-01T09:32:35.576Z,99.90
2019-05-01T09:35:15.454Z,99.90
2019-05-01T09:37:39.039Z,99.90
2019-05-01T09:40:10.443Z,99.90
2019-05-01T09:42:42.172Z,99.90
2019-05-01T09:45:13.746Z,99.90
2019-05-01T09:47:48.616Z,99.90
2019-05-01T09:50:19.161Z,99.90
2019-05-01T09:53:07.506Z,99.90
2019-05-01T09:56:12.143Z,99.90
2019-05-01T09:58:42.487Z,99.90
2019-05-01T10:01:13.298Z,99.90
2019-05-01T10:03:44.983Z,99.90
2019-05-01T10:06:17.152Z,99.90
2019-05-01T10:08:49.053Z,99.90
2019-05-01T10:11:19.944Z,99.90
2019-05-01T10:13:53.739Z,99.90
2019-05-01T10:16:23.999Z,99.90
2019-05-01T10:18:55.120Z,99.90
2019-05-01T10:21:27.103Z,99.90
2019-05-01T10:23:58.278Z,99.90
2019-05-01T10:26:30.293Z,99.90
2019-05-01T10:29:14.381Z,99.90
2019-05-01T10:32:01.790Z,99.90
2019-05-01T10:34:56.726Z,99.90
2019-05-01T10:37:28.457Z,99.90
2019-05-01T10:39:58.144Z,99.90
2019-05-01T10:42:28.469Z,99.70
2019-05-01T10:44:58.793Z,98.70
2019-05-01T10:47:29.091Z,97.00
2019-05-01T10:50:01.172Z,96.90
2019-05-01T10:52:32.956Z,96.60
2019-05-01T10:55:03.268Z,96.60
2019-05-01T10:57:35.250Z,96.70
2019-05-01T11:00:06.776Z,97.60
2019-05-01T11:02:37.451Z,98.70
2019-05-01T11:05:07.943Z,98.30
2019-05-01T11:07:38.742Z,98.00
2019-05-01T11:10:09.260Z,98.30
2019-05-01T11:12:39.714Z,96.80
2019-05-01T11:15:10.587Z,96.50
2019-05-01T11:17:41.418Z,95.60
2019-05-01T11:20:12.596Z,96.00
2019-05-01T11:22:42.858Z,94.40
2019-05-01T11:25:15.544Z,93.30
2019-05-01T11:27:46.491Z,93.00
2019-05-01T11:30:16.864Z,91.00
2019-05-01T11:33:02.067Z,90.20
2019-05-01T11:35:50.729Z,88.00
2019-05-01T11:38:55.721Z,88.40
2019-05-01T11:41:51.878Z,90.50
2019-05-01T11:44:22.327Z,88.20
2019-05-01T11:46:53.749Z,83.20
2019-05-01T11:49:24.917Z,79.60
2019-05-01T11:51:58.361Z,79.80
2019-05-01T11:54:28.704Z,75.30
2019-05-01T11:56:59.186Z,70.10
2019-05-01T11:59:32.601Z,64.40
2019-05-01T12:02:02.547Z,60.80
2019-05-01T12:04:32.955Z,58.80
2019-05-01T12:07:04.581Z,54.90
2019-05-01T12:09:34.937Z,51.40
2019-05-01T12:12:10.144Z,52.10
2019-05-01T12:14:40.433Z,52.20
2019-05-01T12:17:20.609Z,52.10
2019-05-01T12:19:50.938Z,51.60
2019-05-01T12:22:21.250Z,52.00
2019-05-01T12:24:51.538Z,52.10
2019-05-01T12:27:21.874Z,49.80
2019-05-01T12:29:53.223Z,48.00
2019-05-01T12:32:23.547Z,47.90
2019-05-01T12:34:53.904Z,47.10
2019-05-01T12:37:43.193Z,46.10
2019-05-01T12:40:18.393Z,46.50
2019-05-01T12:42:48.774Z,45.10
2019-05-01T12:45:19.275Z,42.70
2019-05-01T12:47:54.826Z,42.30
2019-05-01T12:50:25.117Z,40.70
2019-05-01T12:53:14.405Z,39.20
2019-05-01T12:56:09.451Z,36.20
2019-05-01T12:58:39.779Z,35.80
2019-05-01T13:01:10.079Z,36.60
2019-05-01T13:03:40.404Z,38.10
2019-05-01T13:06:10.799Z,37.70
2019-05-01T13:08:41.125Z,39.60
2019-05-01T13:11:11.398Z,40.70
2019-05-01T13:13:41.756Z,41.50
2019-05-01T13:16:12.040Z,42.20
2019-05-01T13:18:42.369Z,41.20
2019-05-01T13:21:12.635Z,39.70
2019-05-01T13:23:42.968Z,39.70
2019-05-01T13:26:32.228Z,37.40
2019-05-01T13:29:23.701Z,36.40
2019-05-01T13:31:58.792Z,33.90
2019-05-01T13:34:29.166Z,33.40
2019-05-01T13:37:03.266Z,32.60
2019-05-01T13:39:31.875Z,32.60
2019-05-01T13:42:02.584Z,32.10
2019-05-01T13:44:32.872Z,33.40
2019-05-01T13:47:03.217Z,32.70
2019-05-01T13:49:34.224Z,31.10
2019-05-01T13:52:04.586Z,30.20
2019-05-01T13:54:34.880Z,29.90
2019-05-01T13:57:05.767Z,30.70
2019-05-01T13:59:36.072Z,30.70
2019-05-01T14:02:07.482Z,31.60
2019-05-01T14:04:37.919Z,29.60
2019-05-01T14:07:16.167Z,28.40
2019-05-01T14:09:40.987Z,29.30
2019-05-01T14:12:11.267Z,32.00
2019-05-01T14:14:41.794Z,30.50
2019-05-01T14:17:12.105Z,31.40
2019-05-01T14:19:45.021Z,30.40
2019-05-01T14:22:38.428Z,28.70
2019-05-01T14:25:09.907Z,29.50
2019-05-01T14:27:40.188Z,29.30
2019-05-01T14:30:11.135Z,30.20
2019-05-01T14:32:42.171Z,29.60
2019-05-01T14:35:13.001Z,29.50
2019-05-01T14:37:43.275Z,28.40
2019-05-01T14:40:13.683Z,27.90
2019-05-01T14:42:44.392Z,27.20
2019-05-01T14:45:14.931Z,26.80
2019-05-01T14:47:45.594Z,26.10
2019-05-01T14:50:16.293Z,25.70
2019-05-01T14:52:46.599Z,25.00
2019-05-01T14:55:17.219Z,24.20
2019-05-01T14:57:47.639Z,25.60
2019-05-01T15:00:18.648Z,25.10
2019-05-01T15:02:49.008Z,26.50
2019-05-01T15:05:19.324Z,25.20
2019-05-01T15:07:49.625Z,25.70
2019-05-01T15:10:19.963Z,24.50
2019-05-01T15:12:54.222Z,25.70
2019-05-01T15:15:49.468Z,26.30
2019-05-01T15:18:30.931Z,25.50
2019-05-01T15:21:02.010Z,26.50
2019-05-01T15:23:32.588Z,27.70
2019-05-01T15:26:03.312Z,27.70
2019-05-01T15:28:34.664Z,27.70
2019-05-01T15:31:05.069Z,26.80
2019-05-01T15:33:35.460Z,26.40
2019-05-01T15:36:05.995Z,26.90
2019-05-01T15:38:36.767Z,28.80
2019-05-01T15:41:15.129Z,29.60
2019-05-01T15:44:10.458Z,30.90
2019-05-01T15:46:40.835Z,30.70
2019-05-01T15:49:11.477Z,32.10
2019-05-01T15:51:43.018Z,31.20
2019-05-01T15:54:13.344Z,33.10
2019-05-01T15:56:43.882Z,34.00
2019-05-01T15:59:15.759Z,33.90
2019-05-01T16:01:46.351Z,34.70
2019-05-01T16:04:16.822Z,34.50
2019-05-01T16:06:47.196Z,34.70
2019-05-01T16:09:17.615Z,35.10
2019-05-01T16:12:12.671Z,34.90
2019-05-01T16:14:48.374Z,35.60
2019-05-01T16:17:20.543Z,36.10
2019-05-01T16:20:03.520Z,36.30
2019-05-01T16:22:34.574Z,35.70
2019-05-01T16:25:07.138Z,35.60
2019-05-01T16:27:38.794Z,36.20
2019-05-01T16:30:11.723Z,37.80
2019-05-01T16:32:42.238Z,36.50
2019-05-01T16:35:12.821Z,36.30
2019-05-01T16:37:46.801Z,35.60
2019-05-01T16:40:42.923Z,36.10
2019-05-01T16:43:15.150Z,36.10
2019-05-01T16:45:45.656Z,36.80
2019-05-01T16:48:16.061Z,35.60
2019-05-01T16:50:46.349Z,37.30
2019-05-01T16:53:16.636Z,36.10
2019-05-01T16:55:47.101Z,36.10
2019-05-01T16:58:17.871Z,36.30
2019-05-01T17:01:04.684Z,36.00
2019-05-01T17:03:52.724Z,36.40
2019-05-01T17:06:45.165Z,36.70
2019-05-01T17:09:40.327Z,37.10
2019-05-01T17:12:11.046Z,36.30
2019-05-01T17:14:41.698Z,37.30
2019-05-01T17:17:24.596Z,37.30
2019-05-01T17:19:54.938Z,37.50
2019-05-01T17:22:28.281Z,39.20
2019-05-01T17:24:59.308Z,38.90
2019-05-01T17:27:32.431Z,37.20
2019-05-01T17:30:05.096Z,38.00
2019-05-01T17:32:39.787Z,38.30
2019-05-01T17:35:09.458Z,38.20
2019-05-01T17:37:39.899Z,39.00
2019-05-01T17:40:17.254Z,38.90
2019-05-01T17:42:47.900Z,39.60
2019-05-01T17:45:18.382Z,39.50
2019-05-01T17:47:52.808Z,40.70
2019-05-01T17:50:22.353Z,40.00
2019-05-01T17:52:53.111Z,39.90
2019-05-01T17:55:25.658Z,44.00
2019-05-01T17:57:57.960Z,44.30
2019-05-01T18:00:47.391Z,44.60
2019-05-01T18:03:37.916Z,44.60
2019-05-01T18:06:18.306Z,44.50
2019-05-01T18:09:02.196Z,46.60
2019-05-01T18:11:21.732Z,48.10
2019-05-01T18:13:52.577Z,48.10
2019-05-01T18:16:23.045Z,48.40
2019-05-01T18:18:53.328Z,49.10
2019-05-01T18:21:23.735Z,49.50
2019-05-01T18:24:23.286Z,49.90
2019-05-01T18:27:18.926Z,50.10
2019-05-01T18:29:49.116Z,50.70
2019-05-01T18:32:26.756Z,51.50
2019-05-01T18:34:57.090Z,51.80
2019-05-01T18:37:35.158Z,52.50
2019-05-01T18:40:05.357Z,53.00
2019-05-01T18:42:35.793Z,53.60
2019-05-01T18:45:09.627Z,53.90
2019-05-01T18:47:40.198Z,54.10
2019-05-01T18:50:13.432Z,54.50
2019-05-01T18:52:42.647Z,54.50
2019-05-01T18:55:13.029Z,54.70
2019-05-01T18:57:43.379Z,55.20
2019-05-01T19:00:14.929Z,56.70
2019-05-01T19:02:45.336Z,58.10
2019-05-01T19:05:15.652Z,59.50
2019-05-01T19:07:46.004Z,60.20
2019-05-01T19:10:16.360Z,61.10
2019-05-01T19:12:46.878Z,62.20
2019-05-01T19:15:17.493Z,63.10
2019-05-01T19:17:47.890Z,63.00
2019-05-01T19:20:18.303Z,62.90
2019-05-01T19:22:49.084Z,62.80
2019-05-01T19:25:19.433Z,63.10
2019-05-01T19:27:50.185Z,64.80
2019-05-01T19:30:21.391Z,66.00
2019-05-01T19:32:52.657Z,67.30
2019-05-01T19:35:23.581Z,68.20
2019-05-01T19:37:57.604Z,68.80
2019-05-01T19:40:30.549Z,68.70
2019-05-01T19:43:00.420Z,68.50
2019-05-01T19:45:31.770Z,68.10
2019-05-01T19:48:02.315Z,67.10
2019-05-01T19:50:32.716Z,68.60
2019-05-01T19:53:03.745Z,68.50
2019-05-01T19:55:35.791Z,68.40
2019-05-01T19:58:06.200Z,68.90
2019-05-01T20:00:58.980Z,69.10
2019-05-01T20:03:30.682Z,70.00
2019-05-01T20:06:05.248Z,70.30
2019-05-01T20:08:34.974Z,71.20
2019-05-01T20:11:09.179Z,72.10
2019-05-01T20:13:38.412Z,71.20
2019-05-01T20:16:10.203Z,72.00
2019-05-01T20:18:41.566Z,72.30
2019-05-01T20:21:12.880Z,72.40
2019-05-01T20:23:43.991Z,73.20
2019-05-01T20:26:17.084Z,73.30
2019-05-01T20:28:51.921Z,73.50
2019-05-01T20:31:27.635Z,73.80
2019-05-01T20:33:57.662Z,76.50
2019-05-01T20:36:30.397Z,78.10
2019-05-01T20:39:01.900Z,79.80
2019-05-01T20:41:34.546Z,80.20
2019-05-01T20:44:05.380Z,79.80
2019-05-01T20:46:35.861Z,80.50
2019-05-01T20:49:06.767Z,80.90
2019-05-01T20:51:37.533Z,81.30
2019-05-01T20:54:08.012Z,81.70
2019-05-01T20:56:47.811Z,81.90
2019-05-01T20:59:21.582Z,82.10
2019-05-01T21:01:52.603Z,82.30
2019-05-01T21:04:49.227Z,82.20
2019-05-01T21:07:24.277Z,82.30
2019-05-01T21:09:57.870Z,82.30
2019-05-01T21:12:28.338Z,82.60
2019-05-01T21:15:00.006Z,82.10
2019-05-01T21:17:31.576Z,83.00
2019-05-01T21:20:03.833Z,84.30
2019-05-01T21:22:35.769Z,83.70
2019-05-01T21:25:06.250Z,83.60
2019-05-01T21:27:37.340Z,84.10
2019-05-01T21:30:08.193Z,85.70
2019-05-01T21:32:39.073Z,86.10
2019-05-01T21:35:13.744Z,87.10
2019-05-01T21:37:44.467Z,87.80
2019-05-01T21:40:14.829Z,87.30
2019-05-01T21:42:47.442Z,87.10
2019-05-01T21:45:17.332Z,88.00
2019-05-01T21:47:48.403Z,88.60
2019-05-01T21:50:22.874Z,88.40
2019-05-01T21:52:50.681Z,88.20
